Time;durP1;ratioP1;P1;durP2;ratioP2;P2;SDS_P1;SDS_P2;PMS_P1;PMS_P2;Temp;Humidity;BMP_temperature;BMP_pressure;BME280_temperature;BME280_humidity;BME280_pressure;Samples;Min_cycle;Max_cycle;Signal;HPM_P1;HPM_P2
2022/09/18 00:01:30;;;;;;;3.03;1.17;;;14.80;74.70;;;-142.21;99.44;112049.66;5061853;28;20531;-79
2022/09/18 00:04:00;;;;;;;2.77;1.40;;;14.80;74.80;;;-142.21;99.39;112049.66;5067922;28;20440;-78
2022/09/18 00:06:30;;;;;;;1.73;1.20;;;14.70;74.60;;;-142.21;99.65;112049.66;5053975;28;20523;-79
2022/09/18 00:09:00;;;;;;;1.47;1.30;;;14.80;75.10;;;-142.21;99.69;112049.66;5037591;28;20896;-79
2022/09/18 00:11:34;;;;;;;3.40;1.00;;;14.80;75.00;;;-142.21;99.32;112049.66;5060184;28;20455;-79
2022/09/18 00:14:02;;;;;;;1.87;1.13;;;14.80;74.80;;;-142.21;99.99;112049.66;5057292;28;20441;-80
2022/09/18 00:16:29;;;;;;;2.77;1.30;;;14.80;74.90;;;-142.21;99.99;112049.66;5071606;28;20542;-80
2022/09/18 00:18:57;;;;;;;2.30;1.10;;;14.70;74.70;;;-142.21;100.00;112049.66;5054309;28;20441;-79
2022/09/18 00:21:27;;;;;;;2.47;1.00;;;14.70;75.20;;;-142.21;100.00;112049.66;5069485;28;20538;-79
2022/09/18 00:23:57;;;;;;;1.07;0.93;;;14.70;75.60;;;-142.21;100.00;112049.66;5071484;28;20444;-79
2022/09/18 00:26:25;;;;;;;3.33;1.40;;;14.60;75.20;;;-142.21;100.00;112049.66;5068546;28;20459;-78
2022/09/18 00:28:56;;;;;;;2.70;1.60;;;14.60;75.70;;;-142.21;100.00;112049.66;5061342;28;20570;-78
2022/09/18 00:31:29;;;;;;;2.23;0.77;;;14.60;75.10;;;-142.21;100.00;112049.66;5072418;28;20420;-78
2022/09/18 00:33:58;;;;;;;2.10;1.10;;;14.60;75.40;;;-142.21;100.00;112049.66;5061619;28;20436;-79
2022/09/18 00:36:28;;;;;;;1.50;1.13;;;14.60;75.40;;;-142.21;100.00;112049.66;5061085;28;20479;-78
2022/09/18 00:38:55;;;;;;;3.23;1.03;;;14.60;75.70;;;-142.21;100.00;112049.66;5064833;28;20439;-79
2022/09/18 00:41:26;;;;;;;1.33;0.90;;;14.50;75.50;;;-142.21;100.00;112049.66;5065572;28;20477;-80
2022/09/18 00:44:16;;;;;;;3.07;1.27;;;14.60;75.40;;;-142.21;100.00;112049.66;5068412;28;20494;-79
2022/09/18 00:46:46;;;;;;;1.23;0.93;;;14.60;75.30;;;-142.21;100.00;112049.66;5063861;28;20886;-80
2022/09/18 00:49:20;;;;;;;1.60;0.90;;;14.60;75.00;;;-142.21;99.91;112049.66;5065680;28;21039;-79
2022/09/18 00:51:52;;;;;;;1.80;1.10;;;14.50;75.00;;;-142.21;99.96;112049.66;5066006;28;21037;-78
2022/09/18 00:54:25;;;;;;;3.33;1.33;;;14.50;75.10;;;-142.21;98.97;112049.66;5065451;28;20522;-78
2022/09/18 00:56:59;;;;;;;3.63;1.13;;;14.50;74.70;;;-142.21;99.62;112049.66;5065962;28;20489;-79
2022/09/18 00:59:30;;;;;;;2.53;1.13;;;14.30;75.30;;;-142.21;100.00;112049.66;5045291;28;20527;-79
2022/09/18 01:02:00;;;;;;;2.30;1.17;;;14.40;75.60;;;-142.21;99.70;112049.66;5057706;28;20443;-78
2022/09/18 01:04:30;;;;;;;4.03;1.30;;;14.30;75.70;;;-142.21;99.92;112049.66;5038766;28;20996;-79
2022/09/18 01:07:08;;;;;;;1.30;0.93;;;14.30;75.70;;;-142.21;100.00;112049.66;5066116;28;20515;-79
2022/09/18 01:09:48;;;;;;;2.33;1.20;;;14.30;76.00;;;-142.21;100.00;112049.66;5032919;28;20482;-78
2022/09/18 01:12:30;;;;;;;1.93;1.17;;;14.30;76.30;;;-142.21;100.00;112049.66;5044867;28;20527;-78
2022/09/18 01:15:10;;;;;;;2.87;1.17;;;14.30;75.60;;;-142.21;100.00;112049.66;5053614;28;20444;-78
2022/09/18 01:17:49;;;;;;;1.87;1.00;;;14.30;77.20;;;-142.21;100.00;112049.66;5066447;28;20949;-78
2022/09/18 01:21:15;;;;;;;1.60;1.00;;;14.40;76.40;;;-142.21;100.00;112049.66;5054873;28;20446;-78
2022/09/18 01:24:27;;;;;;;1.57;1.07;;;14.40;76.40;;;-142.21;100.00;112049.66;5045084;28;20460;-79
2022/09/18 01:27:01;;;;;;;2.27;1.03;;;14.40;76.70;;;-142.21;100.00;112049.66;5041269;28;20463;-79
2022/09/18 01:29:43;;;;;;;2.20;1.40;;;14.40;76.30;;;-142.21;100.00;112049.66;5053934;28;20478;-79
2022/09/18 01:32:20;;;;;;;2.40;1.20;;;14.40;76.90;;;-142.21;100.00;112049.66;5064629;28;20443;-79
2022/09/18 01:34:59;;;;;;;3.37;1.20;;;14.30;76.60;;;-142.21;100.00;112049.66;5065801;28;20439;-79
2022/09/18 01:37:36;;;;;;;0.77;0.73;;;14.30;77.00;;;-142.21;100.00;112049.66;5058663;28;20489;-79
2022/09/18 01:40:12;;;;;;;1.83;1.17;;;14.40;77.00;;;-142.21;100.00;112049.66;5037084;28;20808;-79
2022/09/18 01:42:43;;;;;;;1.47;1.17;;;14.40;76.80;;;-142.21;100.00;112049.66;5062564;28;20526;-79
2022/09/18 01:45:16;;;;;;;2.87;1.27;;;14.30;77.00;;;-142.21;100.00;112049.66;5052809;28;20440;-78
2022/09/18 01:47:52;;;;;;;3.97;1.40;;;14.30;77.20;;;-142.21;100.00;112049.66;5057699;28;20444;-79
2022/09/18 01:50:19;;;;;;;3.50;1.17;;;14.20;77.50;;;-142.21;100.00;112049.66;5050830;28;20468;-79
2022/09/18 01:52:53;;;;;;;0.77;0.77;;;14.30;77.60;;;-142.21;100.00;112049.66;5051479;28;20449;-79
2022/09/18 01:55:27;;;;;;;2.73;1.43;;;14.20;77.30;;;-142.21;100.00;112049.66;5052004;28;20428;-79
2022/09/18 01:58:00;;;;;;;1.57;1.10;;;14.20;77.40;;;-142.21;100.00;112049.66;5069198;28;20565;-78
2022/09/18 02:00:30;;;;;;;1.70;1.10;;;14.20;77.20;;;-142.21;100.00;112049.66;5065500;28;20440;-80
2022/09/18 02:03:05;;;;;;;2.03;1.00;;;14.10;77.00;;;-142.21;100.00;112049.66;5052845;28;20522;-78
2022/09/18 02:05:38;;;;;;;1.60;1.17;;;14.10;77.80;;;-142.21;100.00;112049.66;5047852;28;20465;-78
2022/09/18 02:08:15;;;;;;;2.00;1.30;;;14.10;78.10;;;-142.21;100.00;112049.66;5047268;28;20476;-79
2022/09/18 02:10:50;;;;;;;6.67;1.50;;;14.00;78.80;;;-142.21;100.00;112049.66;5055312;28;20842;-79
2022/09/18 02:13:30;;;;;;;2.80;1.47;;;14.00;78.10;;;-142.21;100.00;112049.66;5049614;28;20926;-78
2022/09/18 02:16:07;;;;;;;1.67;1.20;;;14.00;78.00;;;-142.21;100.00;112049.66;5046947;28;20459;-78
2022/09/18 02:18:43;;;;;;;4.07;1.50;;;13.90;78.20;;;-142.21;100.00;112049.66;5047179;28;20451;-79
2022/09/18 02:21:17;;;;;;;3.40;1.40;;;14.00;78.20;;;-142.21;100.00;112049.66;5068136;28;20450;-78
2022/09/18 02:23:46;;;;;;;1.63;1.27;;;13.90;78.40;;;-142.21;100.00;112049.66;5071618;28;20446;-79
2022/09/18 02:26:15;;;;;;;2.60;1.20;;;14.00;78.50;;;-142.21;100.00;112049.66;5057873;28;20484;-79
2022/09/18 02:28:45;;;;;;;3.37;1.30;;;14.10;78.70;;;-142.21;100.00;112049.66;5070422;28;20487;-80
2022/09/18 02:31:15;;;;;;;3.90;1.40;;;14.10;78.60;;;-142.21;100.00;112049.66;5063411;28;20527;-78
2022/09/18 02:33:43;;;;;;;1.90;1.47;;;14.00;77.80;;;-142.21;100.00;112049.66;5054436;28;20510;-76
2022/09/18 02:36:44;;;;;;;2.13;1.30;;;14.10;79.20;;;-142.21;100.00;112049.66;5064281;28;20497;-79
2022/09/18 02:39:27;;;;;;;1.87;1.33;;;14.10;78.00;;;-142.21;100.00;112049.66;5062783;28;20443;-78
2022/09/18 02:42:14;;;;;;;4.03;1.80;;;14.10;78.10;;;-142.21;100.00;112049.66;5025827;28;20436;-79
2022/09/18 02:44:51;;;;;;;2.23;1.20;;;14.10;78.00;;;-142.21;100.00;112049.66;5066976;28;20498;-79
2022/09/18 02:47:35;;;;;;;1.80;1.47;;;14.10;77.90;;;-142.21;100.00;112049.66;5049354;28;20436;-79
2022/09/18 02:50:16;;;;;;;2.17;1.30;;;14.10;77.50;;;-142.21;100.00;112049.66;5051560;28;20468;-78
2022/09/18 02:52:52;;;;;;;2.63;1.37;;;14.10;78.30;;;-142.21;100.00;112049.66;5066755;28;20924;-79
2022/09/18 02:55:26;;;;;;;2.87;1.17;;;14.20;78.10;;;-142.21;100.00;112049.66;5057396;28;21282;-79
2022/09/18 02:58:00;;;;;;;3.70;1.60;;;14.10;78.60;;;-142.21;100.00;112049.66;5067650;28;20510;-78
2022/09/18 03:00:31;;;;;;;1.87;1.50;;;14.10;78.00;;;-142.21;100.00;112049.66;5067308;28;20522;-80
2022/09/18 03:03:00;;;;;;;2.03;1.10;;;14.10;78.30;;;-142.21;100.00;112049.66;5055192;28;20994;-79
2022/09/18 03:05:28;;;;;;;4.20;1.40;;;14.10;79.40;;;-142.21;100.00;112049.66;5063787;28;20456;-79
2022/09/18 03:07:55;;;;;;;4.00;1.50;;;14.10;78.30;;;-142.21;100.00;112049.66;5056064;28;20950;-78
2022/09/18 03:10:22;;;;;;;3.40;1.50;;;14.10;77.90;;;-142.21;100.00;112049.66;5055394;28;20536;-78
2022/09/18 03:12:49;;;;;;;2.23;1.00;;;14.10;78.00;;;-142.21;100.00;112049.66;5053009;28;20448;-79
2022/09/18 03:15:17;;;;;;;2.83;1.53;;;14.10;78.00;;;-142.21;100.00;112049.66;5057775;28;20815;-80
2022/09/18 03:17:44;;;;;;;1.47;1.37;;;14.00;78.00;;;-142.21;100.00;112049.66;5055326;28;20462;-78
2022/09/18 03:20:13;;;;;;;1.97;1.30;;;14.00;78.40;;;-142.21;100.00;112049.66;5004775;28;20440;-79
2022/09/18 03:22:40;;;;;;;3.80;1.30;;;14.00;78.50;;;-142.21;100.00;112049.66;5062030;28;20444;-79
2022/09/18 03:25:09;;;;;;;4.13;1.40;;;14.00;78.90;;;-142.21;100.00;112049.66;5063944;28;20448;-80
2022/09/18 03:27:36;;;;;;;1.77;1.30;;;14.00;79.60;;;-142.21;100.00;112049.66;5031679;28;20456;-80
2022/09/18 03:30:05;;;;;;;2.67;1.50;;;14.00;78.70;;;-142.21;100.00;112049.66;5054403;28;20495;-79
2022/09/18 03:32:32;;;;;;;3.73;1.40;;;14.10;78.90;;;-142.21;100.00;112049.66;5055246;28;20456;-78
2022/09/18 03:34:59;;;;;;;3.00;1.37;;;14.00;78.70;;;-142.21;100.00;112049.66;5038609;28;20444;-80
2022/09/18 03:37:28;;;;;;;2.43;1.30;;;14.10;78.80;;;-142.21;100.00;112049.66;5074892;28;20797;-78
2022/09/18 03:39:55;;;;;;;2.40;1.20;;;14.00;78.40;;;-142.21;100.00;112049.66;5074635;28;20444;-76
2022/09/18 03:42:22;;;;;;;4.13;1.20;;;14.10;78.50;;;-142.21;100.00;112049.66;5074220;28;20451;-74
2022/09/18 03:44:49;;;;;;;2.57;1.30;;;14.10;79.20;;;-142.21;100.00;112049.66;5057590;28;20449;-80
2022/09/18 03:47:17;;;;;;;2.03;1.13;;;14.10;78.50;;;-142.21;100.00;112049.66;5070407;28;20796;-80
2022/09/18 03:49:45;;;;;;;3.37;1.53;;;14.00;78.50;;;-142.21;100.00;112049.66;5071755;28;20489;-80
2022/09/18 03:52:12;;;;;;;1.13;1.00;;;14.10;78.60;;;-142.21;100.00;112049.66;5058036;28;20532;-79
2022/09/18 03:54:40;;;;;;;2.07;1.20;;;14.10;78.90;;;-142.21;100.00;112049.66;5054249;28;20540;-80
2022/09/18 03:57:08;;;;;;;4.00;1.47;;;14.10;78.70;;;-142.21;100.00;112049.66;5070765;28;20487;-79
2022/09/18 03:59:35;;;;;;;1.33;1.23;;;14.20;78.70;;;-142.21;100.00;112049.66;5059757;28;20452;-78
2022/09/18 04:02:02;;;;;;;4.47;1.30;;;14.20;78.60;;;-142.21;100.00;112049.66;5060133;28;20451;-78
2022/09/18 04:04:30;;;;;;;1.53;1.10;;;14.20;79.20;;;-142.21;100.00;112049.66;5037819;28;20540;-79
2022/09/18 04:06:57;;;;;;;3.97;1.43;;;14.20;78.20;;;-142.21;100.00;112049.66;5072801;28;20431;-79
2022/09/18 04:09:24;;;;;;;2.60;1.57;;;14.10;78.40;;;-142.21;100.00;112049.66;5072462;28;20491;-79
2022/09/18 04:11:53;;;;;;;2.30;1.23;;;14.00;78.40;;;-142.21;100.00;112049.66;5069880;28;20440;-78
2022/09/18 04:14:21;;;;;;;2.40;1.43;;;14.00;79.00;;;-142.21;100.00;112049.66;5069629;28;20477;-78
2022/09/18 04:16:50;;;;;;;2.77;1.30;;;14.10;78.90;;;-142.21;100.00;112049.66;5071629;28;20454;-78
2022/09/18 04:19:17;;;;;;;4.17;1.43;;;14.10;78.40;;;-142.21;100.00;112049.66;5053795;28;20815;-78
2022/09/18 04:21:44;;;;;;;3.50;1.50;;;14.10;78.40;;;-142.21;100.00;112049.66;5064528;28;20543;-79
2022/09/18 04:24:12;;;;;;;2.80;1.33;;;14.10;78.30;;;-142.21;100.00;112049.66;5061766;28;20451;-79
2022/09/18 04:26:39;;;;;;;5.23;1.70;;;14.20;78.50;;;-142.21;100.00;112049.66;5055095;28;20456;-78
2022/09/18 04:29:07;;;;;;;4.80;1.50;;;14.20;78.20;;;-142.21;100.00;112049.66;5060258;28;20479;-78
2022/09/18 04:31:34;;;;;;;4.87;1.70;;;14.20;78.10;;;-142.21;100.00;112049.66;5056674;28;20445;-79
2022/09/18 04:34:02;;;;;;;2.63;1.70;;;14.30;78.00;;;-142.21;100.00;112049.66;5072010;28;20539;-79
2022/09/18 04:36:29;;;;;;;3.60;1.80;;;14.30;77.30;;;-142.21;100.00;112049.66;5067251;28;20451;-79
2022/09/18 04:38:58;;;;;;;2.80;1.60;;;14.30;77.70;;;-142.21;100.00;112049.66;5062688;28;20437;-79
2022/09/18 04:41:25;;;;;;;2.57;1.50;;;14.30;77.30;;;-142.21;100.00;112049.66;5043357;28;20523;-80
2022/09/18 04:43:52;;;;;;;2.83;1.53;;;14.30;77.40;;;-142.21;100.00;112049.66;5054516;28;20444;-79
2022/09/18 04:46:21;;;;;;;3.43;1.90;;;14.30;77.40;;;-142.21;100.00;112049.66;5059769;28;20448;-77
2022/09/18 04:48:50;;;;;;;3.10;1.57;;;14.40;77.30;;;-142.21;100.00;112049.66;5061809;28;20811;-79
2022/09/18 04:51:17;;;;;;;4.73;1.77;;;14.40;77.10;;;-142.21;100.00;112049.66;5064622;28;20443;-79
2022/09/18 04:53:44;;;;;;;6.93;2.30;;;14.50;77.20;;;-142.21;100.00;112049.66;5037104;28;20452;-80
2022/09/18 04:56:11;;;;;;;2.70;1.87;;;14.50;76.90;;;-142.21;100.00;112049.66;5069871;28;20474;-79
2022/09/18 04:58:38;;;;;;;5.10;1.70;;;14.50;76.80;;;-142.21;100.00;112049.66;5068232;28;20948;-79
2022/09/18 05:01:05;;;;;;;3.13;1.60;;;14.50;76.60;;;-142.21;100.00;112049.66;5071056;28;20543;-78
2022/09/18 05:03:34;;;;;;;2.47;1.70;;;14.50;76.60;;;-142.21;100.00;112049.66;5065331;28;20448;-79
2022/09/18 05:06:01;;;;;;;5.97;1.80;;;14.50;76.40;;;-142.21;100.00;112049.66;5068469;28;20539;-78
2022/09/18 05:08:30;;;;;;;3.40;1.60;;;14.40;76.10;;;-142.21;100.00;112049.66;5066566;28;21024;-80
2022/09/18 05:10:57;;;;;;;7.00;2.00;;;14.30;76.70;;;-142.21;100.00;112049.66;5064779;28;20523;-78
2022/09/18 05:13:24;;;;;;;2.50;1.50;;;14.20;76.80;;;-142.21;100.00;112049.66;5049786;28;20452;-78
2022/09/18 05:15:55;;;;;;;2.30;1.70;;;14.10;76.90;;;-142.21;100.00;112049.66;5054148;28;21037;-80
2022/09/18 05:18:22;;;;;;;2.80;1.60;;;14.20;77.70;;;-142.21;99.81;112049.66;5058230;28;20459;-78
2022/09/18 05:20:50;;;;;;;3.53;1.60;;;14.10;76.70;;;-142.21;99.35;112049.66;5041739;28;20458;-77
2022/09/18 05:23:17;;;;;;;3.90;1.77;;;14.00;76.70;;;-142.21;99.69;112049.66;5060723;28;20455;-80
2022/09/18 05:25:45;;;;;;;4.60;2.00;;;14.00;77.00;;;-142.21;99.68;112049.66;5057165;28;20447;-81
2022/09/18 05:28:14;;;;;;;5.17;1.70;;;14.00;76.90;;;-142.21;99.59;112049.66;5070553;28;20951;-80
2022/09/18 05:30:41;;;;;;;2.83;1.53;;;14.00;76.70;;;-142.21;99.16;112049.66;5059752;28;20483;-79
2022/09/18 05:33:11;;;;;;;1.30;1.20;;;14.00;76.70;;;-142.21;99.61;112049.66;5053416;28;20964;-77
2022/09/18 05:35:39;;;;;;;2.93;1.53;;;14.00;76.70;;;-142.21;99.00;112049.66;5057615;28;20455;-80
2022/09/18 05:38:08;;;;;;;5.30;1.70;;;14.00;76.60;;;-142.21;99.61;112049.66;5067572;28;20449;-79
2022/09/18 05:40:38;;;;;;;2.87;1.60;;;14.10;76.60;;;-142.21;99.68;112049.66;5062733;28;20539;-79
2022/09/18 05:43:06;;;;;;;3.57;1.97;;;14.20;76.30;;;-142.21;99.06;112049.66;5052510;28;20449;-80
2022/09/18 05:45:34;;;;;;;2.33;1.53;;;14.20;76.10;;;-142.21;99.27;112049.66;5052035;28;20496;-80
2022/09/18 05:48:05;;;;;;;1.80;1.50;;;14.20;75.90;;;-142.21;98.55;112049.66;5053331;28;20456;-80
2022/09/18 05:50:33;;;;;;;5.43;1.90;;;14.20;76.00;;;-142.21;99.04;112049.66;5051669;28;20480;-79
2022/09/18 05:53:02;;;;;;;4.70;2.00;;;14.10;76.20;;;-142.21;98.82;112049.66;5061886;28;20482;-80
2022/09/18 05:55:32;;;;;;;2.07;1.57;;;14.10;76.30;;;-142.21;98.26;112049.66;5071217;28;20455;-79
2022/09/18 05:58:02;;;;;;;1.83;1.43;;;14.10;76.10;;;-142.21;98.35;112049.66;5070144;28;20582;-79
2022/09/18 06:00:33;;;;;;;2.67;1.50;;;14.10;75.90;;;-142.21;97.71;112049.66;5069644;28;21124;-80
2022/09/18 06:03:03;;;;;;;3.83;1.60;;;14.00;75.90;;;-142.21;97.96;112049.66;5054080;28;20444;-80
2022/09/18 06:05:33;;;;;;;1.40;1.20;;;13.90;76.40;;;-142.21;98.58;112049.66;5050682;28;20443;-80
2022/09/18 06:08:01;;;;;;;4.07;1.53;;;14.00;76.70;;;-142.21;97.76;112049.66;5072131;28;20534;-79
2022/09/18 06:10:33;;;;;;;2.37;1.40;;;14.00;75.90;;;-142.21;98.06;112049.66;5070360;28;21054;-79
2022/09/18 06:13:01;;;;;;;3.77;1.63;;;13.90;76.30;;;-142.21;97.38;112049.66;5045327;28;20450;-79
2022/09/18 06:15:29;;;;;;;3.13;1.67;;;14.00;75.90;;;-142.21;97.07;112049.66;5036164;28;20842;-78
2022/09/18 06:17:56;;;;;;;4.13;1.60;;;14.10;75.70;;;-142.21;96.61;112049.66;5062782;28;20448;-79
2022/09/18 06:20:23;;;;;;;1.47;1.30;;;14.00;75.30;;;-142.21;97.12;112049.66;5056594;28;20448;-80
2022/09/18 06:22:51;;;;;;;2.40;1.50;;;14.00;75.70;;;-142.21;96.35;112049.66;5053780;28;20444;-79
2022/09/18 06:25:20;;;;;;;4.50;1.40;;;14.10;75.40;;;-142.21;96.83;112049.66;5057536;28;20444;-79
2022/09/18 06:27:53;;;;;;;2.07;1.87;;;14.10;75.30;;;-142.21;95.44;112049.66;5053204;28;20456;-80
2022/09/18 06:30:20;;;;;;;1.60;1.37;;;14.10;74.70;;;-142.21;96.01;112049.66;5053418;28;20527;-79
2022/09/18 06:32:50;;;;;;;4.97;1.63;;;14.10;75.20;;;-142.21;95.42;112049.66;5059537;28;20450;-79
2022/09/18 06:35:18;;;;;;;5.17;1.50;;;14.10;74.80;;;-142.21;95.23;112049.66;5065703;28;20950;-78
2022/09/18 06:37:45;;;;;;;2.60;1.50;;;14.10;74.80;;;-142.21;94.87;112049.66;5062184;28;20531;-79
2022/09/18 06:40:12;;;;;;;4.47;1.60;;;14.10;74.60;;;-142.21;94.36;112049.66;5067904;28;20452;-79
2022/09/18 06:42:39;;;;;;;3.90;1.63;;;14.10;74.20;;;-142.21;95.13;112049.66;5062801;28;20495;-79
2022/09/18 06:45:09;;;;;;;2.33;1.27;;;14.10;74.70;;;-142.21;94.94;112049.66;5056344;28;20536;-79
2022/09/18 06:47:37;;;;;;;3.23;1.27;;;14.20;75.00;;;-142.21;94.11;112049.66;5069444;28;20451;-79
2022/09/18 06:50:05;;;;;;;1.40;1.30;;;14.20;74.00;;;-142.21;94.56;112049.66;5061756;28;20483;-80
2022/09/18 06:52:32;;;;;;;3.33;1.50;;;14.20;74.30;;;-142.21;94.01;112049.66;5060609;28;20607;-79
2022/09/18 06:54:59;;;;;;;6.10;1.50;;;14.20;73.70;;;-142.21;93.52;112049.66;5074023;28;20451;-80
2022/09/18 06:57:27;;;;;;;2.93;1.50;;;14.20;73.80;;;-142.21;93.81;112049.66;5064339;28;20490;-79
2022/09/18 06:59:54;;;;;;;1.77;1.40;;;14.20;74.00;;;-142.21;93.86;112049.66;5064945;28;20440;-78
2022/09/18 07:02:22;;;;;;;4.27;1.70;;;14.30;73.80;;;-142.21;93.64;112049.66;5058830;28;21015;-79
2022/09/18 07:04:50;;;;;;;3.10;1.47;;;14.30;73.70;;;-142.21;93.59;112049.66;5054006;28;20487;-79
2022/09/18 07:07:17;;;;;;;3.93;1.70;;;14.30;73.60;;;-142.21;93.57;112049.66;5055717;28;20444;-80
2022/09/18 07:09:45;;;;;;;5.17;1.60;;;14.40;73.70;;;-142.21;93.45;112049.66;5068192;28;20514;-80
2022/09/18 07:12:12;;;;;;;4.77;1.60;;;14.50;73.60;;;-142.21;92.35;112049.66;5067443;28;20788;-79
2022/09/18 07:14:39;;;;;;;3.23;1.70;;;14.50;72.90;;;-142.21;92.56;112049.66;5065485;28;20868;-79
2022/09/18 07:17:10;;;;;;;4.43;1.87;;;14.60;72.50;;;-142.21;92.57;112049.66;5055131;28;20446;-79
2022/09/18 07:19:39;;;;;;;2.57;1.60;;;14.60;72.70;;;-142.21;91.86;112049.66;5073787;28;20471;-79
2022/09/18 07:22:06;;;;;;;2.87;1.47;;;14.50;72.20;;;-142.21;91.97;112049.66;5072292;28;20435;-79
2022/09/18 07:24:35;;;;;;;2.20;1.50;;;14.60;72.50;;;-142.21;92.17;112049.66;5055983;28;20531;-80
2022/09/18 07:27:02;;;;;;;2.87;1.50;;;14.60;72.50;;;-142.21;91.31;112049.66;5061513;28;20462;-79
2022/09/18 07:29:31;;;;;;;5.80;1.60;;;14.60;71.90;;;-142.21;91.78;112049.66;5042083;28;21007;-78
2022/09/18 07:31:59;;;;;;;2.90;1.50;;;14.60;72.40;;;-142.21;91.23;112049.66;5073220;28;20859;-78
2022/09/18 07:34:27;;;;;;;1.87;1.40;;;14.60;72.10;;;-142.21;91.10;112049.66;5057211;28;20534;-79
2022/09/18 07:36:56;;;;;;;2.50;1.80;;;14.60;72.20;;;-142.21;91.38;112049.66;5055444;28;20448;-79
2022/09/18 07:39:23;;;;;;;3.87;1.60;;;14.60;72.30;;;-142.21;92.11;112049.66;5071684;28;20874;-80
2022/09/18 07:41:50;;;;;;;2.43;1.50;;;14.70;72.90;;;-142.21;91.52;112049.66;5073937;28;20447;-80
2022/09/18 07:44:18;;;;;;;3.67;1.40;;;14.90;72.40;;;-142.21;90.20;112049.66;5063325;28;20444;-79
2022/09/18 07:46:45;;;;;;;3.13;1.83;;;14.90;71.00;;;-142.21;90.15;112049.66;5057327;28;20548;-79
2022/09/18 07:49:13;;;;;;;3.90;1.80;;;14.90;71.20;;;-142.21;89.59;112049.66;5055544;28;20450;-79
2022/09/18 07:51:40;;;;;;;4.97;1.57;;;14.90;71.10;;;-142.21;89.26;112049.66;5063273;28;20514;-79
2022/09/18 07:54:09;;;;;;;3.60;1.50;;;14.90;71.20;;;-142.21;88.77;112049.66;5064075;28;20502;-78
2022/09/18 07:56:36;;;;;;;1.67;1.10;;;15.00;70.90;;;-142.21;89.05;112049.66;5070962;28;20487;-78
2022/09/18 07:59:03;;;;;;;2.47;1.87;;;15.10;71.70;;;-142.21;89.12;112049.66;5072273;28;20459;-79
2022/09/18 08:01:34;;;;;;;2.93;1.50;;;15.20;71.10;;;-142.21;87.40;112049.66;5058677;28;20451;-75
2022/09/18 08:04:02;;;;;;;1.90;1.13;;;15.20;69.70;;;-142.21;87.71;112049.66;5056218;28;20459;-75
2022/09/18 08:06:30;;;;;;;1.93;1.47;;;15.30;69.90;;;-142.21;88.67;112049.66;5064686;28;20452;-75
2022/09/18 08:08:58;;;;;;;2.30;1.60;;;15.20;70.50;;;-142.21;86.56;112049.66;5058545;28;20936;-76
2022/09/18 08:11:28;;;;;;;2.83;1.67;;;15.30;69.40;;;-142.21;85.83;112049.66;5054366;28;20480;-80
2022/09/18 08:13:55;;;;;;;2.80;1.40;;;15.30;68.90;;;-142.21;87.05;112049.66;5040169;28;20488;-79
2022/09/18 08:16:22;;;;;;;4.27;1.60;;;15.40;69.90;;;-142.21;86.12;112049.66;5065417;28;20439;-80
2022/09/18 08:18:50;;;;;;;3.37;1.60;;;15.40;68.90;;;-142.21;86.98;112049.66;5061640;28;20531;-76
2022/09/18 08:21:19;;;;;;;4.77;1.40;;;15.50;69.80;;;-142.21;85.99;112049.66;5073681;28;20443;-77
2022/09/18 08:23:46;;;;;;;2.57;1.50;;;15.60;69.20;;;-142.21;86.60;112049.66;5059353;28;20977;-77
2022/09/18 08:26:13;;;;;;;4.07;1.67;;;15.80;69.10;;;-142.21;87.03;112049.66;5064082;28;20464;-78
2022/09/18 08:28:42;;;;;;;3.23;1.73;;;15.80;68.90;;;-142.21;87.22;112049.66;5045063;28;20536;-77
2022/09/18 08:31:10;;;;;;;2.40;1.40;;;15.90;69.10;;;-142.21;85.57;112049.66;5033436;28;20843;-75
2022/09/18 08:33:37;;;;;;;2.07;1.33;;;15.90;67.70;;;-142.21;85.06;112049.66;5066705;28;20890;-75
2022/09/18 08:36:05;;;;;;;2.37;1.67;;;15.90;67.70;;;-142.21;85.54;112049.66;5065139;28;20938;-74
2022/09/18 08:38:34;;;;;;;2.90;1.23;;;15.80;68.10;;;-142.21;84.74;112049.66;5071077;28;20443;-73
2022/09/18 08:41:30;;;;;;;2.20;1.60;;;15.80;67.10;;;-142.21;85.68;112049.66;5065123;28;20440;-74
2022/09/18 08:44:07;;;;;;;3.43;1.50;;;15.80;68.20;;;-142.21;85.63;112049.66;5054864;28;20464;-74
2022/09/18 08:46:41;;;;;;;3.97;1.50;;;15.80;68.00;;;-142.21;85.93;112049.66;5015315;28;20909;-75
2022/09/18 08:49:23;;;;;;;3.70;1.77;;;15.70;68.30;;;-142.21;85.73;112049.66;5033161;28;20483;-75
2022/09/18 08:51:59;;;;;;;2.43;1.60;;;15.70;68.50;;;-142.21;86.52;112049.66;5045091;28;20530;-74
2022/09/18 08:54:45;;;;;;;2.13;1.43;;;15.80;68.90;;;-142.21;86.81;112049.66;5062760;28;20987;-74
2022/09/18 08:57:21;;;;;;;2.23;1.47;;;15.90;69.00;;;-142.21;84.86;112049.66;5055451;28;20483;-74
2022/09/18 08:59:56;;;;;;;5.53;1.40;;;16.10;67.90;;;-142.21;84.52;112049.66;5053498;28;20984;-73
2022/09/18 09:02:47;;;;;;;6.13;1.70;;;16.10;67.50;;;-142.21;84.17;112049.66;5056309;28;20435;-74
2022/09/18 09:05:18;;;;;;;4.20;1.37;;;16.20;67.40;;;-142.21;83.51;112049.66;5056784;28;20443;-74
2022/09/18 09:08:22;;;;;;;2.10;1.30;;;16.20;67.20;;;-142.21;83.13;112049.66;5049634;28;20521;-74
2022/09/18 09:10:58;;;;;;;3.97;1.50;;;16.30;67.30;;;-142.21;83.56;112049.66;5033537;28;20843;-74
2022/09/18 09:14:18;;;;;;;4.93;1.50;;;16.40;67.20;;;-142.21;80.25;112049.66;5015150;28;20440;-75
2022/09/18 09:16:55;;;;;;;2.40;1.57;;;16.40;65.50;;;-142.21;80.96;112049.66;5051117;28;20452;-74
2022/09/18 09:19:38;;;;;;;2.90;1.13;;;16.40;66.10;;;-142.21;81.05;112049.66;5051916;28;20452;-75
2022/09/18 09:22:17;;;;;;;3.53;1.50;;;16.60;66.00;;;-142.21;78.28;112049.66;5053985;28;20530;-76
2022/09/18 09:25:01;;;;;;;3.53;1.30;;;16.70;64.20;;;-142.21;77.25;112049.66;5049105;28;20472;-75
2022/09/18 09:27:36;;;;;;;2.10;1.43;;;16.60;63.80;;;-142.21;77.87;112049.66;5052559;28;20460;-74
2022/09/18 09:30:12;;;;;;;3.10;1.47;;;16.70;64.30;;;-142.21;78.23;112049.66;5037446;28;20961;-74
2022/09/18 09:32:49;;;;;;;4.17;1.50;;;16.80;65.00;;;-142.21;77.88;112049.66;5045458;28;20448;-74
2022/09/18 09:35:31;;;;;;;2.73;1.40;;;17.00;64.60;;;-142.21;74.84;112049.66;5052372;28;20507;-75
2022/09/18 09:38:05;;;;;;;2.67;1.33;;;17.30;63.70;;;-142.21;75.90;112049.66;5052439;28;20522;-74
2022/09/18 09:40:42;;;;;;;2.00;0.90;;;17.50;63.30;;;-142.21;70.77;112049.66;5021701;28;20445;-75
2022/09/18 09:43:23;;;;;;;1.80;1.23;;;17.60;60.60;;;-142.21;70.82;112049.66;5061814;28;20491;-75
2022/09/18 09:45:55;;;;;;;3.27;1.10;;;17.90;60.90;;;-142.21;66.91;112049.66;5052726;28;20440;-75
2022/09/18 09:48:37;;;;;;;2.20;1.20;;;18.00;59.50;;;-142.21;66.09;112049.66;5001709;28;20441;-76
2022/09/18 09:51:16;;;;;;;1.40;0.83;;;18.00;58.50;;;-142.21;67.61;112049.66;5017448;28;20610;-76
2022/09/18 09:53:44;;;;;;;7.10;1.50;;;18.20;59.60;;;-142.21;66.75;112049.66;5052437;28;20432;-75
2022/09/18 09:56:22;;;;;;;4.03;1.20;;;18.40;59.20;;;-142.21;65.74;112049.66;5052643;28;20518;-75
2022/09/18 09:59:02;;;;;;;3.33;1.73;;;18.60;58.90;;;-142.21;64.50;112049.66;5061068;28;20444;-74
2022/09/18 10:01:38;;;;;;;2.23;1.10;;;18.70;58.40;;;-142.21;61.90;112049.66;5072018;28;20446;-74
2022/09/18 10:04:26;;;;;;;3.50;1.20;;;18.70;56.90;;;-142.21;62.00;112049.66;5072444;28;20427;-77
2022/09/18 10:07:05;;;;;;;4.73;1.50;;;18.50;56.80;;;-142.21;61.11;112049.66;5071890;28;20446;-75
2022/09/18 10:09:47;;;;;;;1.53;1.33;;;18.40;56.40;;;-142.21;62.92;112049.66;5056635;28;20459;-76
2022/09/18 10:12:27;;;;;;;1.83;0.83;;;18.20;57.50;;;-142.21;63.46;112049.66;5061526;28;20471;-76
2022/09/18 10:15:16;;;;;;;2.13;1.10;;;18.30;57.80;;;-142.21;64.21;112049.66;5070613;28;20223;-75
2022/09/18 10:17:48;;;;;;;1.97;1.13;;;18.20;57.70;;;-142.21;63.55;112049.66;5071173;28;20438;-75